sensor_id;sensor_type;location;lat;lon;timestamp;pressure;altitude;pressure_sealevel;temperature;humidity
29433;BME280;16405;53.964;13.448;2022-10-29T00:00:57;101353.03;;;15.35;100.00
29433;BME280;16405;53.964;13.448;2022-10-29T00:03:26;101368.16;;;15.33;100.00
29433;BME280;16405;53.964;13.448;2022-10-29T00:08:19;101368.16;;;15.33;100.00
29433;BME280;16405;53.964;13.448;2022-10-29T00:10:45;101368.00;;;15.36;100.00
29433;BME280;16405;53.964;13.448;2022-10-29T00:13:10;101369.63;;;15.38;100.00
29433;BME280;16405;53.964;13.448;2022-10-29T00:15:39;101361.41;;;15.43;100.00
29433;BME280;16405;53.964;13.448;2022-10-29T00:18:13;101362.25;;;15.44;100.00
29433;BME280;16405;53.964;13.448;2022-10-29T00:20:38;101365.75;;;15.44;100.00
29433;BME280;16405;53.964;13.448;2022-10-29T00:23:04;101363.28;;;15.41;100.00
29433;BME280;16405;53.964;13.448;2022-10-29T00:25:30;101366.22;;;15.36;100.00
29433;BME280;16405;53.964;13.448;2022-10-29T00:27:56;101366.56;;;15.30;100.00
29433;BME280;16405;53.964;13.448;2022-10-29T00:30:30;101353.81;;;15.21;100.00
29433;BME280;16405;53.964;13.448;2022-10-29T00:32:56;101363.91;;;15.14;100.00
29433;BME280;16405;53.964;13.448;2022-10-29T00:35:22;101376.47;;;15.11;100.00
29433;BME280;16405;53.964;13.448;2022-10-29T00:37:47;101373.31;;;15.04;100.00
29433;BME280;16405;53.964;13.448;2022-10-29T00:40:19;101369.97;;;15.01;100.00
29433;BME280;16405;53.964;13.448;2022-10-29T00:42:45;101372.78;;;14.97;100.00
29433;BME280;16405;53.964;13.448;2022-10-29T00:45:20;101364.25;;;14.92;100.00
29433;BME280;16405;53.964;13.448;2022-10-29T00:47:50;101370.47;;;14.91;100.00
29433;BME280;16405;53.964;13.448;2022-10-29T00:50:19;101377.56;;;14.91;100.00
29433;BME280;16405;53.964;13.448;2022-10-29T00:52:55;101359.28;;;14.86;100.00
29433;BME280;16405;53.964;13.448;2022-10-29T00:55:21;101370.81;;;14.85;100.00
29433;BME280;16405;53.964;13.448;2022-10-29T00:57:58;101368.41;;;14.81;100.00
29433;BME280;16405;53.964;13.448;2022-10-29T01:00:25;101371.06;;;14.81;100.00
29433;BME280;16405;53.964;13.448;2022-10-29T01:02:51;101377.13;;;14.83;100.00
29433;BME280;16405;53.964;13.448;2022-10-29T01:05:25;101393.75;;;14.86;100.00
29433;BME280;16405;53.964;13.448;2022-10-29T01:07:51;101395.81;;;14.97;100.00
29433;BME280;16405;53.964;13.448;2022-10-29T01:10:31;101395.31;;;15.06;100.00
29433;BME280;16405;53.964;13.448;2022-10-29T01:13:24;101395.81;;;15.13;100.00
29433;BME280;16405;53.964;13.448;2022-10-29T01:16:18;101383.06;;;15.20;100.00
29433;BME280;16405;53.964;13.448;2022-10-29T01:21:56;101396.78;;;15.28;100.00
29433;BME280;16405;53.964;13.448;2022-10-29T01:36:31;101414.84;;;15.53;100.00
29433;BME280;16405;53.964;13.448;2022-10-29T01:39:09;101411.31;;;15.52;100.00
29433;BME280;16405;53.964;13.448;2022-10-29T01:42:09;101411.16;;;15.55;100.00
29433;BME280;16405;53.964;13.448;2022-10-29T01:44:50;101413.88;;;15.54;100.00
29433;BME280;16405;53.964;13.448;2022-10-29T01:47:19;101405.06;;;15.53;100.00
29433;BME280;16405;53.964;13.448;2022-10-29T01:49:57;101408.56;;;15.54;100.00
29433;BME280;16405;53.964;13.448;2022-10-29T01:52:27;101408.31;;;15.58;100.00
29433;BME280;16405;53.964;13.448;2022-10-29T01:54:59;101396.91;;;15.56;100.00
29433;BME280;16405;53.964;13.448;2022-10-29T01:57:38;101416.34;;;15.57;100.00
29433;BME280;16405;53.964;13.448;2022-10-29T02:00:18;101409.41;;;15.54;100.00
29433;BME280;16405;53.964;13.448;2022-10-29T02:09:02;101411.31;;;15.36;100.00
29433;BME280;16405;53.964;13.448;2022-10-29T02:11:38;101412.44;;;15.32;100.00
29433;BME280;16405;53.964;13.448;2022-10-29T02:14:43;101419.53;;;15.32;100.00
29433;BME280;16405;53.964;13.448;2022-10-29T02:17:10;101416.19;;;15.28;100.00
29433;BME280;16405;53.964;13.448;2022-10-29T02:19:36;101411.84;;;15.27;100.00
29433;BME280;16405;53.964;13.448;2022-10-29T02:22:02;101417.22;;;15.26;100.00
29433;BME280;16405;53.964;13.448;2022-10-29T02:24:28;101421.50;;;15.28;100.00
29433;BME280;16405;53.964;13.448;2022-10-29T02:26:59;101434.75;;;15.28;100.00
29433;BME280;16405;53.964;13.448;2022-10-29T02:29:24;101431.25;;;15.28;100.00
29433;BME280;16405;53.964;13.448;2022-10-29T02:31:50;101426.97;;;15.25;100.00
29433;BME280;16405;53.964;13.448;2022-10-29T02:34:16;101434.16;;;15.23;100.00
29433;BME280;16405;53.964;13.448;2022-10-29T02:36:42;101434.84;;;15.27;100.00
29433;BME280;16405;53.964;13.448;2022-10-29T02:39:10;101436.81;;;15.23;100.00
29433;BME280;16405;53.964;13.448;2022-10-29T02:41:38;101440.31;;;15.24;100.00
29433;BME280;16405;53.964;13.448;2022-10-29T02:44:04;101436.19;;;15.18;100.00
29433;BME280;16405;53.964;13.448;2022-10-29T02:46:30;101443.56;;;15.13;100.00
29433;BME280;16405;53.964;13.448;2022-10-29T02:48:55;101450.28;;;15.03;100.00
29433;BME280;16405;53.964;13.448;2022-10-29T02:51:21;101436.69;;;14.93;100.00
29433;BME280;16405;53.964;13.448;2022-10-29T02:53:47;101430.09;;;14.84;100.00
29433;BME280;16405;53.964;13.448;2022-10-29T02:56:21;101432.28;;;14.76;100.00
29433;BME280;16405;53.964;13.448;2022-10-29T02:58:47;101441.63;;;14.66;100.00
29433;BME280;16405;53.964;13.448;2022-10-29T03:01:13;101443.13;;;14.54;100.00
29433;BME280;16405;53.964;13.448;2022-10-29T03:03:38;101442.41;;;14.50;100.00
29433;BME280;16405;53.964;13.448;2022-10-29T03:06:12;101452.41;;;14.45;100.00
29433;BME280;16405;53.964;13.448;2022-10-29T03:08:38;101449.66;;;14.47;100.00
29433;BME280;16405;53.964;13.448;2022-10-29T03:11:04;101452.22;;;14.48;100.00
29433;BME280;16405;53.964;13.448;2022-10-29T03:13:30;101453.50;;;14.41;100.00
29433;BME280;16405;53.964;13.448;2022-10-29T03:16:03;101461.03;;;14.31;100.00
29433;BME280;16405;53.964;13.448;2022-10-29T03:18:29;101457.06;;;14.23;100.00
29433;BME280;16405;53.964;13.448;2022-10-29T03:20:55;101458.31;;;14.15;100.00
29433;BME280;16405;53.964;13.448;2022-10-29T03:23:20;101473.72;;;14.07;100.00
29433;BME280;16405;53.964;13.448;2022-10-29T03:25:54;101472.25;;;14.02;100.00
29433;BME280;16405;53.964;13.448;2022-10-29T03:28:22;101469.78;;;13.97;100.00
29433;BME280;16405;53.964;13.448;2022-10-29T03:30:48;101476.75;;;14.00;100.00
29433;BME280;16405;53.964;13.448;2022-10-29T03:33:14;101477.31;;;14.06;100.00
29433;BME280;16405;53.964;13.448;2022-10-29T03:35:40;101486.66;;;14.13;100.00
29433;BME280;16405;53.964;13.448;2022-10-29T03:38:10;101488.06;;;14.21;100.00
29433;BME280;16405;53.964;13.448;2022-10-29T03:40:36;101480.03;;;14.22;100.00
29433;BME280;16405;53.964;13.448;2022-10-29T03:43:02;101492.44;;;14.22;100.00
29433;BME280;16405;53.964;13.448;2022-10-29T03:45:27;101483.84;;;14.16;100.00
29433;BME280;16405;53.964;13.448;2022-10-29T03:47:53;101479.50;;;14.15;100.00
29433;BME280;16405;53.964;13.448;2022-10-29T03:50:19;101487.50;;;14.14;100.00
29433;BME280;16405;53.964;13.448;2022-10-29T03:52:49;101487.69;;;14.11;100.00
29433;BME280;16405;53.964;13.448;2022-10-29T03:55:15;101481.59;;;14.09;100.00
29433;BME280;16405;53.964;13.448;2022-10-29T03:57:41;101479.19;;;14.04;100.00
29433;BME280;16405;53.964;13.448;2022-10-29T04:00:08;101484.75;;;13.98;100.00
29433;BME280;16405;53.964;13.448;2022-10-29T04:02:34;101488.50;;;13.94;100.00
29433;BME280;16405;53.964;13.448;2022-10-29T04:05:00;101488.84;;;13.86;100.00
29433;BME280;16405;53.964;13.448;2022-10-29T04:07:30;101503.09;;;13.84;100.00
29433;BME280;16405;53.964;13.448;2022-10-29T04:09:56;101506.69;;;13.83;100.00
29433;BME280;16405;53.964;13.448;2022-10-29T04:12:22;101511.88;;;13.84;100.00
29433;BME280;16405;53.964;13.448;2022-10-29T04:14:47;101505.75;;;13.84;100.00
29433;BME280;16405;53.964;13.448;2022-10-29T04:17:13;101505.69;;;13.85;100.00
29433;BME280;16405;53.964;13.448;2022-10-29T04:19:39;101498.59;;;13.86;100.00
29433;BME280;16405;53.964;13.448;2022-10-29T04:22:12;101499.59;;;13.83;100.00
29433;BME280;16405;53.964;13.448;2022-10-29T04:24:38;101510.19;;;13.83;100.00
29433;BME280;16405;53.964;13.448;2022-10-29T04:27:04;101509.56;;;13.78;100.00
29433;BME280;16405;53.964;13.448;2022-10-29T04:29:30;101521.13;;;13.75;100.00
29433;BME280;16405;53.964;13.448;2022-10-29T04:31:55;101509.00;;;13.71;100.00
29433;BME280;16405;53.964;13.448;2022-10-29T04:34:26;101502.81;;;13.71;100.00
29433;BME280;16405;53.964;13.448;2022-10-29T04:36:52;101505.56;;;13.69;100.00
29433;BME280;16405;53.964;13.448;2022-10-29T04:39:18;101510.97;;;13.66;100.00
29433;BME280;16405;53.964;13.448;2022-10-29T04:41:47;101502.41;;;13.61;100.00
29433;BME280;16405;53.964;13.448;2022-10-29T04:44:21;101493.75;;;13.58;100.00
29433;BME280;16405;53.964;13.448;2022-10-29T04:46:47;101494.81;;;13.53;100.00
29433;BME280;16405;53.964;13.448;2022-10-29T04:49:13;101490.59;;;13.49;100.00
29433;BME280;16405;53.964;13.448;2022-10-29T04:51:38;101499.47;;;13.48;100.00
29433;BME280;16405;53.964;13.448;2022-10-29T04:54:07;101509.28;;;13.46;100.00
29433;BME280;16405;53.964;13.448;2022-10-29T04:56:35;101507.63;;;13.44;100.00
29433;BME280;16405;53.964;13.448;2022-10-29T04:59:01;101518.22;;;13.44;100.00
29433;BME280;16405;53.964;13.448;2022-10-29T05:01:26;101518.34;;;13.41;100.00
29433;BME280;16405;53.964;13.448;2022-10-29T05:03:52;101520.28;;;13.37;100.00
29433;BME280;16405;53.964;13.448;2022-10-29T05:06:18;101514.13;;;13.37;100.00
29433;BME280;16405;53.964;13.448;2022-10-29T05:08:46;101514.13;;;13.37;100.00
29433;BME280;16405;53.964;13.448;2022-10-29T05:11:14;101514.25;;;13.33;100.00
29433;BME280;16405;53.964;13.448;2022-10-29T05:13:40;101518.75;;;13.31;100.00
29433;BME280;16405;53.964;13.448;2022-10-29T05:16:06;101524.13;;;13.30;100.00
29433;BME280;16405;53.964;13.448;2022-10-29T05:18:32;101534.63;;;13.31;100.00
29433;BME280;16405;53.964;13.448;2022-10-29T05:20:58;101539.78;;;13.34;100.00
29433;BME280;16405;53.964;13.448;2022-10-29T05:23:26;101530.13;;;13.33;100.00
29433;BME280;16405;53.964;13.448;2022-10-29T05:25:54;101519.78;;;13.29;100.00
29433;BME280;16405;53.964;13.448;2022-10-29T05:28:22;101522.44;;;13.27;100.00
29433;BME280;16405;53.964;13.448;2022-10-29T05:30:50;101526.16;;;13.23;100.00
29433;BME280;16405;53.964;13.448;2022-10-29T05:33:23;101528.88;;;13.22;100.00
29433;BME280;16405;53.964;13.448;2022-10-29T05:35:49;101526.41;;;13.17;100.00
29433;BME280;16405;53.964;13.448;2022-10-29T05:38:16;101528.28;;;13.15;100.00
29433;BME280;16405;53.964;13.448;2022-10-29T05:40:42;101532.72;;;13.14;100.00
29433;BME280;16405;53.964;13.448;2022-10-29T05:43:13;101540.78;;;13.11;100.00
29433;BME280;16405;53.964;13.448;2022-10-29T05:45:40;101548.78;;;13.10;100.00
29433;BME280;16405;53.964;13.448;2022-10-29T05:48:06;101563.84;;;13.08;100.00
29433;BME280;16405;53.964;13.448;2022-10-29T05:50:32;101564.78;;;13.07;100.00
29433;BME280;16405;53.964;13.448;2022-10-29T05:53:05;101564.84;;;13.05;100.00
29433;BME280;16405;53.964;13.448;2022-10-29T05:55:33;101568.50;;;13.03;100.00
29433;BME280;16405;53.964;13.448;2022-10-29T05:58:02;101558.03;;;13.00;100.00
29433;BME280;16405;53.964;13.448;2022-10-29T06:00:32;101560.75;;;12.98;100.00
29433;BME280;16405;53.964;13.448;2022-10-29T06:02:58;101551.09;;;12.97;100.00
29433;BME280;16405;53.964;13.448;2022-10-29T06:05:24;101540.59;;;12.96;100.00
29433;BME280;16405;53.964;13.448;2022-10-29T06:07:54;101540.59;;;12.96;100.00
29433;BME280;16405;53.964;13.448;2022-10-29T06:10:22;101549.47;;;12.95;100.00
29433;BME280;16405;53.964;13.448;2022-10-29T06:12:50;101553.81;;;12.96;100.00
29433;BME280;16405;53.964;13.448;2022-10-29T06:15:17;101566.09;;;12.97;100.00
29433;BME280;16405;53.964;13.448;2022-10-29T06:17:44;101553.69;;;12.99;100.00
29433;BME280;16405;53.964;13.448;2022-10-29T06:20:14;101548.50;;;12.96;100.00
29433;BME280;16405;53.964;13.448;2022-10-29T06:22:40;101561.63;;;12.99;100.00
29433;BME280;16405;53.964;13.448;2022-10-29T06:25:07;101570.25;;;13.02;100.00
29433;BME280;16405;53.964;13.448;2022-10-29T06:27:33;101568.56;;;13.01;100.00
29433;BME280;16405;53.964;13.448;2022-10-29T06:29:59;101564.06;;;13.03;100.00
29433;BME280;16405;53.964;13.448;2022-10-29T06:32:24;101560.22;;;13.10;100.00
29433;BME280;16405;53.964;13.448;2022-10-29T06:34:50;101573.31;;;13.13;100.00
29433;BME280;16405;53.964;13.448;2022-10-29T06:37:23;101571.25;;;13.20;100.00
29433;BME280;16405;53.964;13.448;2022-10-29T06:39:49;101574.97;;;13.16;100.00
29433;BME280;16405;53.964;13.448;2022-10-29T06:42:15;101584.69;;;13.16;100.00
29433;BME280;16405;53.964;13.448;2022-10-29T06:44:49;101593.31;;;13.19;100.00
29433;BME280;16405;53.964;13.448;2022-10-29T06:47:15;101593.22;;;13.22;100.00
29433;BME280;16405;53.964;13.448;2022-10-29T06:49:41;101593.13;;;13.24;100.00
29433;BME280;16405;53.964;13.448;2022-10-29T06:52:06;101603.47;;;13.30;100.00
29433;BME280;16405;53.964;13.448;2022-10-29T06:54:32;101610.34;;;13.34;100.00
29433;BME280;16405;53.964;13.448;2022-10-29T06:56:58;101623.34;;;13.39;100.00
29433;BME280;16405;53.964;13.448;2022-10-29T06:59:31;101621.13;;;13.50;100.00
29433;BME280;16405;53.964;13.448;2022-10-29T07:01:56;101618.84;;;13.61;100.00
29433;BME280;16405;53.964;13.448;2022-10-29T07:04:22;101643.34;;;14.04;100.00
29433;BME280;16405;53.964;13.448;2022-10-29T07:06:48;101658.50;;;15.11;100.00
29433;BME280;16405;53.964;13.448;2022-10-29T07:09:14;101658.16;;;15.52;100.00
29433;BME280;16405;53.964;13.448;2022-10-29T07:11:39;101652.53;;;15.58;100.00
29433;BME280;16405;53.964;13.448;2022-10-29T07:14:10;101652.41;;;15.27;100.00
29433;BME280;16405;53.964;13.448;2022-10-29T07:16:36;101663.72;;;15.13;100.00
29433;BME280;16405;53.964;13.448;2022-10-29T07:19:03;101645.53;;;14.88;100.00
29433;BME280;16405;53.964;13.448;2022-10-29T07:21:28;101629.31;;;14.76;100.00
29433;BME280;16405;53.964;13.448;2022-10-29T07:23:54;101637.75;;;14.85;100.00
29433;BME280;16405;53.964;13.448;2022-10-29T07:26:25;101646.31;;;15.07;100.00
29433;BME280;16405;53.964;13.448;2022-10-29T07:28:54;101647.63;;;15.51;100.00
29433;BME280;16405;53.964;13.448;2022-10-29T07:31:21;101651.94;;;15.69;98.90
29433;BME280;16405;53.964;13.448;2022-10-29T07:33:49;101649.47;;;15.66;97.47
29433;BME280;16405;53.964;13.448;2022-10-29T07:36:17;101637.78;;;15.53;97.13
29433;BME280;16405;53.964;13.448;2022-10-29T07:38:43;101638.75;;;15.34;97.70
29433;BME280;16405;53.964;13.448;2022-10-29T07:41:08;101650.44;;;15.30;98.95
29433;BME280;16405;53.964;13.448;2022-10-29T07:43:34;101653.09;;;15.30;99.11
29433;BME280;16405;53.964;13.448;2022-10-29T07:46:00;101646.88;;;15.31;99.09
29433;BME280;16405;53.964;13.448;2022-10-29T07:48:26;101642.78;;;15.42;99.07
29433;BME280;16405;53.964;13.448;2022-10-29T07:51:01;101651.53;;;15.44;98.60
29433;BME280;16405;53.964;13.448;2022-10-29T07:53:27;101649.72;;;15.44;98.54
29433;BME280;16405;53.964;13.448;2022-10-29T07:56:00;101647.47;;;15.36;98.00
29433;BME280;16405;53.964;13.448;2022-10-29T07:58:26;101652.72;;;15.21;98.57
29433;BME280;16405;53.964;13.448;2022-10-29T08:00:52;101666.22;;;15.16;99.38
29433;BME280;16405;53.964;13.448;2022-10-29T08:03:19;101674.09;;;15.17;99.81
29433;BME280;16405;53.964;13.448;2022-10-29T08:05:45;101683.53;;;15.06;100.00
29433;BME280;16405;53.964;13.448;2022-10-29T08:08:16;101681.81;;;15.05;100.00
29433;BME280;16405;53.964;13.448;2022-10-29T08:10:42;101699.59;;;15.20;100.00
29433;BME280;16405;53.964;13.448;2022-10-29T08:13:09;101695.19;;;15.21;100.00
29433;BME280;16405;53.964;13.448;2022-10-29T08:15:35;101698.03;;;15.16;99.94
29433;BME280;16405;53.964;13.448;2022-10-29T08:18:10;101686.56;;;15.33;99.56
29433;BME280;16405;53.964;13.448;2022-10-29T08:20:38;101679.00;;;15.43;99.26
29433;BME280;16405;53.964;13.448;2022-10-29T08:23:04;101682.75;;;15.38;99.06
29433;BME280;16405;53.964;13.448;2022-10-29T08:25:30;101675.28;;;15.47;99.44
29433;BME280;16405;53.964;13.448;2022-10-29T08:28:18;101681.78;;;15.57;98.67
29433;BME280;16405;53.964;13.448;2022-10-29T08:30:48;101687.41;;;15.68;97.77
29433;BME280;16405;53.964;13.448;2022-10-29T08:33:14;101708.78;;;15.83;97.08
29433;BME280;16405;53.964;13.448;2022-10-29T08:35:48;101712.88;;;16.06;96.04
29433;BME280;16405;53.964;13.448;2022-10-29T08:38:17;101693.53;;;16.19;93.91
29433;BME280;16405;53.964;13.448;2022-10-29T08:47:08;101717.13;;;16.57;89.30
29433;BME280;16405;53.964;13.448;2022-10-29T08:50:44;101712.00;;;16.54;89.20
29433;BME280;16405;53.964;13.448;2022-10-29T08:53:39;101711.81;;;16.42;88.76
29433;BME280;16405;53.964;13.448;2022-10-29T08:56:18;101712.41;;;16.47;89.52
29433;BME280;16405;53.964;13.448;2022-10-29T08:59:15;101702.81;;;16.44;89.95
29433;BME280;16405;53.964;13.448;2022-10-29T09:01:50;101710.03;;;16.42;90.12
29433;BME280;16405;53.964;13.448;2022-10-29T09:04:35;101714.56;;;16.40;90.04
29433;BME280;16405;53.964;13.448;2022-10-29T09:07:20;101716.03;;;16.61;89.93
29433;BME280;16405;53.964;13.448;2022-10-29T09:10:56;101721.31;;;16.77;88.18
29433;BME280;16405;53.964;13.448;2022-10-29T09:13:47;101720.56;;;16.75;87.88
29433;BME280;16405;53.964;13.448;2022-10-29T09:20:04;101736.69;;;17.04;86.26
29433;BME280;16405;53.964;13.448;2022-10-29T09:23:24;101740.97;;;17.07;85.76
29433;BME280;16405;53.964;13.448;2022-10-29T09:26:15;101742.44;;;16.96;84.72
29433;BME280;16405;53.964;13.448;2022-10-29T09:29:23;101741.69;;;16.94;84.82
29433;BME280;16405;53.964;13.448;2022-10-29T09:32:07;101734.81;;;16.90;83.95
29433;BME280;16405;53.964;13.448;2022-10-29T09:34:59;101726.53;;;16.80;83.69
29433;BME280;16405;53.964;13.448;2022-10-29T11:52:03;101680.59;;;18.52;70.50
29433;BME280;16405;53.964;13.448;2022-10-29T11:57:38;101696.94;;;18.60;69.29
29433;BME280;16405;53.964;13.448;2022-10-29T12:00:18;101697.72;;;18.62;70.01
29433;BME280;16405;53.964;13.448;2022-10-29T12:05:44;101679.59;;;18.68;69.63
29433;BME280;16405;53.964;13.448;2022-10-29T12:08:58;101682.91;;;18.71;70.08
29433;BME280;16405;53.964;13.448;2022-10-29T12:11:55;101682.59;;;18.76;69.32
29433;BME280;16405;53.964;13.448;2022-10-29T12:15:18;101685.50;;;18.73;68.90
29433;BME280;16405;53.964;13.448;2022-10-29T12:18:24;101692.16;;;18.65;69.18
29433;BME280;16405;53.964;13.448;2022-10-29T12:21:13;101690.66;;;18.61;69.40
29433;BME280;16405;53.964;13.448;2022-10-29T12:27:20;101673.84;;;18.47;68.04
29433;BME280;16405;53.964;13.448;2022-10-29T12:30:04;101669.22;;;18.36;67.61
29433;BME280;16405;53.964;13.448;2022-10-29T12:33:13;101662.06;;;18.36;68.58
29433;BME280;16405;53.964;13.448;2022-10-29T12:36:08;101667.28;;;18.38;68.28
29433;BME280;16405;53.964;13.448;2022-10-29T12:38:41;101658.13;;;18.42;69.36
29433;BME280;16405;53.964;13.448;2022-10-29T12:41:42;101656.22;;;18.44;68.87
29433;BME280;16405;53.964;13.448;2022-10-29T12:44:41;101657.28;;;18.41;67.78
29433;BME280;16405;53.964;13.448;2022-10-29T12:55:31;101649.81;;;18.19;69.09
29433;BME280;16405;53.964;13.448;2022-10-29T12:58:50;101652.13;;;18.11;69.27
29433;BME280;16405;53.964;13.448;2022-10-29T13:09:21;101655.06;;;17.78;70.88
29433;BME280;16405;53.964;13.448;2022-10-29T13:11:59;101658.03;;;17.73;71.81
29433;BME280;16405;53.964;13.448;2022-10-29T13:15:08;101655.25;;;17.75;72.77
29433;BME280;16405;53.964;13.448;2022-10-29T13:17:29;101655.44;;;17.72;70.81
29433;BME280;16405;53.964;13.448;2022-10-29T13:20:18;101665.06;;;17.74;71.78
29433;BME280;16405;53.964;13.448;2022-10-29T13:28:01;101670.84;;;17.67;71.29
29433;BME280;16405;53.964;13.448;2022-10-29T13:31:34;101667.44;;;17.65;71.85
29433;BME280;16405;53.964;13.448;2022-10-29T13:41:19;101655.06;;;17.63;73.79
29433;BME280;16405;53.964;13.448;2022-10-29T13:44:09;101658.56;;;17.64;74.11
29433;BME280;16405;53.964;13.448;2022-10-29T13:46:59;101650.50;;;17.66;74.74
29433;BME280;16405;53.964;13.448;2022-10-29T13:49:42;101652.19;;;17.67;74.56
29433;BME280;16405;53.964;13.448;2022-10-29T13:54:55;101656.03;;;17.62;74.55
29433;BME280;16405;53.964;13.448;2022-10-29T14:00:19;101636.03;;;17.55;75.44
29433;BME280;16405;53.964;13.448;2022-10-29T14:03:34;101636.41;;;17.49;74.52
29433;BME280;16405;53.964;13.448;2022-10-29T14:06:12;101639.56;;;17.41;74.58
29433;BME280;16405;53.964;13.448;2022-10-29T14:11:39;101626.56;;;17.21;75.24
29433;BME280;16405;53.964;13.448;2022-10-29T14:14:32;101616.41;;;17.13;75.30
29433;BME280;16405;53.964;13.448;2022-10-29T14:17:24;101608.09;;;17.04;75.77
29433;BME280;16405;53.964;13.448;2022-10-29T14:19:51;101611.41;;;16.93;76.13
29433;BME280;16405;53.964;13.448;2022-10-29T14:22:42;101616.22;;;16.86;76.93
29433;BME280;16405;53.964;13.448;2022-10-29T14:25:32;101619.16;;;16.81;77.75
29433;BME280;16405;53.964;13.448;2022-10-29T14:28:13;101624.72;;;16.77;78.01
29433;BME280;16405;53.964;13.448;2022-10-29T14:30:47;101628.59;;;16.71;78.11
29433;BME280;16405;53.964;13.448;2022-10-29T14:33:38;101626.41;;;16.64;78.11
29433;BME280;16405;53.964;13.448;2022-10-29T14:36:20;101619.63;;;16.58;78.69
29433;BME280;16405;53.964;13.448;2022-10-29T14:38:56;101612.00;;;16.52;79.24
29433;BME280;16405;53.964;13.448;2022-10-29T14:41:24;101613.22;;;16.46;79.36
29433;BME280;16405;53.964;13.448;2022-10-29T14:44:17;101610.91;;;16.40;79.89
29433;BME280;16405;53.964;13.448;2022-10-29T14:47:12;101606.97;;;16.31;80.30
29433;BME280;16405;53.964;13.448;2022-10-29T14:49:47;101602.25;;;16.20;80.22
29433;BME280;16405;53.964;13.448;2022-10-29T14:52:39;101598.25;;;16.13;81.04
29433;BME280;16405;53.964;13.448;2022-10-29T14:57:43;101602.75;;;15.95;82.00
29433;BME280;16405;53.964;13.448;2022-10-29T15:00:25;101611.75;;;15.93;82.57
29433;BME280;16405;53.964;13.448;2022-10-29T15:02:53;101607.56;;;15.89;83.19
29433;BME280;16405;53.964;13.448;2022-10-29T15:05:36;101610.41;;;15.86;83.46
29433;BME280;16405;53.964;13.448;2022-10-29T15:08:16;101614.94;;;15.84;83.86
29433;BME280;16405;53.964;13.448;2022-10-29T15:10:56;101615.97;;;15.81;84.00
29433;BME280;16405;53.964;13.448;2022-10-29T15:15:58;101606.69;;;15.72;85.13
29433;BME280;16405;53.964;13.448;2022-10-29T15:18:28;101608.63;;;15.69;85.58
29433;BME280;16405;53.964;13.448;2022-10-29T15:20:55;101612.31;;;15.66;85.36
29433;BME280;16405;53.964;13.448;2022-10-29T15:26:19;101611.91;;;15.56;85.67
29433;BME280;16405;53.964;13.448;2022-10-29T15:28:55;101613.13;;;15.51;86.08
29433;BME280;16405;53.964;13.448;2022-10-29T15:31:30;101605.38;;;15.46;86.31
29433;BME280;16405;53.964;13.448;2022-10-29T15:34:20;101605.81;;;15.38;87.18
29433;BME280;16405;53.964;13.448;2022-10-29T15:36:53;101609.88;;;15.28;87.62
29433;BME280;16405;53.964;13.448;2022-10-29T15:42:27;101608.88;;;15.13;89.60
29433;BME280;16405;53.964;13.448;2022-10-29T15:47:36;101617.31;;;15.04;91.15
29433;BME280;16405;53.964;13.448;2022-10-29T15:50:05;101613.03;;;15.02;91.21
29433;BME280;16405;53.964;13.448;2022-10-29T15:55:44;101606.22;;;14.96;93.03
29433;BME280;16405;53.964;13.448;2022-10-29T15:58:20;101609.72;;;14.96;93.59
29433;BME280;16405;53.964;13.448;2022-10-29T16:00:48;101604.34;;;14.98;94.09
29433;BME280;16405;53.964;13.448;2022-10-29T16:03:20;101598.03;;;15.01;93.94
29433;BME280;16405;53.964;13.448;2022-10-29T16:08:42;101615.19;;;15.11;92.93
29433;BME280;16405;53.964;13.448;2022-10-29T16:11:15;101608.97;;;15.12;93.02
29433;BME280;16405;53.964;13.448;2022-10-29T16:13:45;101593.91;;;15.12;93.59
29433;BME280;16405;53.964;13.448;2022-10-29T16:16:16;101601.75;;;15.14;94.00
29433;BME280;16405;53.964;13.448;2022-10-29T16:18:47;101596.56;;;15.12;94.10
29433;BME280;16405;53.964;13.448;2022-10-29T16:21:24;101589.53;;;15.11;94.35
29433;BME280;16405;53.964;13.448;2022-10-29T16:23:53;101584.22;;;15.11;95.03
29433;BME280;16405;53.964;13.448;2022-10-29T16:26:24;101587.66;;;15.13;95.16
29433;BME280;16405;53.964;13.448;2022-10-29T16:28:52;101588.50;;;15.14;95.00
29433;BME280;16405;53.964;13.448;2022-10-29T16:31:26;101589.38;;;15.14;95.04
29433;BME280;16405;53.964;13.448;2022-10-29T16:34:02;101576.69;;;15.04;95.29
29433;BME280;16405;53.964;13.448;2022-10-29T16:36:28;101586.44;;;15.03;95.77
29433;BME280;16405;53.964;13.448;2022-10-29T16:38:54;101588.13;;;15.04;95.49
29433;BME280;16405;53.964;13.448;2022-10-29T16:41:20;101592.72;;;15.01;95.99
29433;BME280;16405;53.964;13.448;2022-10-29T16:43:54;101586.66;;;14.98;95.81
29433;BME280;16405;53.964;13.448;2022-10-29T16:46:20;101591.03;;;15.00;96.02
29433;BME280;16405;53.964;13.448;2022-10-29T16:48:46;101591.88;;;15.00;96.54
29433;BME280;16405;53.964;13.448;2022-10-29T16:51:11;101585.66;;;15.01;96.13
29433;BME280;16405;53.964;13.448;2022-10-29T16:53:45;101586.50;;;15.02;96.16
29433;BME280;16405;53.964;13.448;2022-10-29T16:56:10;101578.84;;;14.95;96.66
29433;BME280;16405;53.964;13.448;2022-10-29T16:58:36;101565.06;;;14.89;96.92
29433;BME280;16405;53.964;13.448;2022-10-29T17:01:04;101570.28;;;14.90;97.35